createdAt,value
2022-09-03T00:04:23.630Z,20.99
2022-09-03T00:09:34.234Z,21.01
2022-09-03T00:14:52.716Z,20.96
2022-09-03T00:20:00.288Z,20.86
2022-09-03T00:25:07.330Z,20.79
2022-09-03T00:30:14.607Z,20.73
2022-09-03T00:35:37.734Z,20.66
2022-09-03T00:41:08.631Z,20.61
2022-09-03T00:46:23.627Z,20.51
2022-09-03T00:51:33.276Z,20.38
2022-09-03T00:56:52.415Z,20.26
2022-09-03T01:02:01.171Z,20.04
2022-09-03T01:07:18.495Z,19.73
2022-09-03T01:12:25.941Z,19.53
2022-09-03T01:18:00.102Z,19.38
2022-09-03T01:23:20.503Z,19.33
2022-09-03T01:28:21.916Z,19.33
2022-09-03T01:33:46.300Z,19.33
2022-09-03T01:38:56.222Z,19.34
2022-09-03T01:44:21.612Z,19.35
2022-09-03T01:49:41.353Z,19.28
2022-09-03T01:54:50.481Z,19.27
2022-09-03T01:59:54.882Z,19.27
2022-09-03T02:05:14.265Z,19.16
2022-09-03T02:10:30.099Z,19.12
2022-09-03T02:15:34.659Z,19.08
2022-09-03T02:20:37.777Z,18.90
2022-09-03T02:25:44.736Z,18.70
2022-09-03T02:30:46.678Z,18.70
2022-09-03T02:35:48.845Z,18.67
2022-09-03T02:40:50.265Z,18.78
2022-09-03T02:45:57.017Z,18.85
2022-09-03T02:50:59.106Z,18.91
2022-09-03T02:56:01.431Z,18.95
2022-09-03T03:01:02.946Z,19.01
2022-09-03T03:06:07.102Z,19.05
2022-09-03T03:11:08.534Z,19.00
2022-09-03T03:16:10.305Z,18.91
2022-09-03T03:21:15.000Z,18.89
2022-09-03T03:26:19.085Z,18.93
2022-09-03T03:31:22.628Z,18.98
2022-09-03T03:36:26.519Z,18.95
2022-09-03T03:41:33.830Z,18.90
2022-09-03T03:46:37.514Z,18.95
2022-09-03T03:51:39.232Z,18.96
2022-09-03T03:56:40.833Z,18.89
2022-09-03T04:01:42.334Z,18.72
2022-09-03T04:06:43.924Z,18.61
2022-09-03T04:11:45.371Z,18.58
2022-09-03T04:16:47.210Z,18.60
2022-09-03T04:21:48.719Z,18.69
2022-09-03T04:26:54.071Z,18.70
2022-09-03T04:32:14.006Z,18.77
2022-09-03T04:37:16.494Z,18.80
2022-09-03T04:42:18.005Z,18.82
2022-09-03T04:47:19.566Z,18.84
2022-09-03T04:52:21.354Z,18.85
2022-09-03T04:57:23.209Z,18.90
2022-09-03T05:02:24.735Z,18.89
2022-09-03T05:07:28.448Z,18.81
2022-09-03T05:12:31.719Z,18.70
2022-09-03T05:17:37.617Z,18.72
2022-09-03T05:22:39.288Z,18.80
2022-09-03T05:27:40.748Z,18.96
2022-09-03T05:32:42.552Z,19.14
2022-09-03T05:37:44.576Z,19.32
2022-09-03T05:42:46.075Z,19.38
2022-09-03T05:47:47.557Z,19.42
2022-09-03T05:52:49.319Z,19.44
2022-09-03T05:57:53.959Z,19.40
2022-09-03T06:02:55.547Z,19.41
2022-09-03T06:07:57.130Z,19.42
2022-09-03T06:13:02.965Z,19.43
2022-09-03T06:18:05.056Z,19.46
2022-09-03T06:23:06.551Z,19.56
2022-09-03T06:28:09.008Z,19.47
2022-09-03T06:33:11.150Z,19.43
2022-09-03T06:38:12.795Z,19.64
2022-09-03T06:43:14.278Z,19.97
2022-09-03T06:48:15.986Z,20.35
2022-09-03T06:53:17.486Z,20.71
2022-09-03T06:58:18.958Z,20.96
2022-09-03T07:03:21.397Z,21.17
2022-09-03T07:08:22.936Z,21.42
2022-09-03T07:13:25.073Z,21.63
2022-09-03T07:18:26.614Z,22.03
2022-09-03T07:23:29.400Z,22.39
2022-09-03T07:28:34.808Z,22.52
2022-09-03T07:33:36.235Z,22.41
2022-09-03T07:38:38.028Z,22.21
2022-09-03T07:43:49.778Z,22.01
2022-09-03T07:48:53.238Z,21.86
2022-09-03T07:53:57.752Z,21.73
2022-09-03T07:58:59.665Z,21.43
2022-09-03T08:04:02.636Z,21.55
2022-09-03T08:09:07.205Z,21.68
2022-09-03T08:14:13.821Z,23.59
2022-09-03T08:19:18.388Z,25.07
2022-09-03T08:24:22.179Z,23.21
2022-09-03T08:29:23.668Z,21.52
2022-09-03T08:34:25.195Z,20.90
2022-09-03T08:39:26.862Z,20.58
2022-09-03T08:44:29.617Z,21.13
2022-09-03T08:50:02.476Z,24.50
2022-09-03T08:55:25.901Z,24.90
2022-09-03T09:00:49.195Z,24.85
2022-09-03T09:06:23.969Z,24.99
2022-09-03T09:11:28.352Z,25.14
2022-09-03T09:16:42.851Z,25.16
2022-09-03T09:21:52.981Z,25.22
2022-09-03T09:26:59.443Z,25.24
2022-09-03T09:32:01.534Z,25.13
2022-09-03T09:37:07.805Z,24.92
2022-09-03T09:42:12.044Z,24.99
2022-09-03T09:47:21.344Z,25.25
2022-09-03T09:52:26.007Z,25.71
2022-09-03T09:57:27.515Z,26.13
2022-09-03T10:02:29.354Z,26.79
2022-09-03T10:07:32.981Z,27.92
2022-09-03T10:12:43.455Z,29.34
2022-09-03T10:18:03.626Z,29.66
2022-09-03T10:23:04.999Z,30.05
2022-09-03T10:28:13.320Z,29.56
2022-09-03T10:33:29.797Z,29.04
2022-09-03T10:38:34.581Z,28.82
2022-09-03T10:43:39.137Z,27.87
2022-09-03T10:49:09.002Z,27.14
2022-09-03T10:54:32.553Z,26.73
2022-09-03T10:59:46.301Z,26.33
2022-09-03T11:05:03.060Z,26.49
2022-09-03T11:10:11.695Z,27.03
2022-09-03T11:15:42.576Z,27.66
2022-09-03T11:20:44.874Z,28.12
2022-09-03T11:25:59.336Z,28.35
2022-09-03T11:31:17.613Z,28.20
2022-09-03T11:36:35.406Z,27.65
2022-09-03T11:41:37.628Z,27.85
2022-09-03T11:46:40.508Z,28.13
2022-09-03T11:51:44.033Z,28.22
2022-09-03T11:56:47.888Z,27.89
2022-09-03T12:01:58.390Z,27.78
2022-09-03T12:07:08.809Z,27.48
2022-09-03T12:12:28.931Z,26.94
2022-09-03T12:17:40.193Z,26.69
2022-09-03T12:22:42.457Z,26.51
2022-09-03T12:27:46.408Z,26.54
2022-09-03T12:32:48.155Z,26.71
2022-09-03T12:38:09.891Z,26.73
2022-09-03T12:48:39.475Z,26.88
2022-09-03T12:53:42.168Z,26.86
2022-09-03T12:58:58.354Z,26.00
2022-09-03T13:04:10.375Z,25.76
2022-09-03T13:09:14.340Z,25.59
2022-09-03T13:14:17.628Z,25.50
2022-09-03T13:19:26.746Z,25.29
2022-09-03T13:25:02.833Z,25.35
2022-09-03T13:30:21.018Z,25.32
2022-09-03T13:35:48.234Z,25.50
2022-09-03T13:40:59.803Z,25.65
2022-09-03T13:46:17.335Z,25.50
2022-09-03T13:51:31.971Z,25.12
2022-09-03T13:56:48.725Z,25.32
2022-09-03T14:02:32.252Z,25.44
2022-09-03T14:08:08.257Z,25.49
2022-09-03T14:13:20.670Z,25.58
2022-09-03T14:18:50.833Z,25.51
2022-09-03T14:23:52.202Z,25.45
2022-09-03T14:29:11.983Z,25.33
2022-09-03T14:34:16.218Z,24.97
2022-09-03T14:39:28.410Z,24.70
2022-09-03T14:44:44.780Z,24.52
2022-09-03T14:49:49.435Z,24.48
2022-09-03T14:55:05.842Z,24.51
2022-09-03T15:00:33.579Z,24.43
2022-09-03T15:05:58.291Z,24.34
2022-09-03T15:11:03.136Z,24.40
2022-09-03T15:16:25.674Z,24.48
2022-09-03T15:21:55.226Z,24.55
2022-09-03T15:27:10.399Z,24.49
2022-09-03T15:32:22.670Z,24.50
2022-09-03T15:37:35.213Z,24.41
2022-09-03T15:42:38.667Z,24.32
2022-09-03T15:47:51.357Z,24.21
2022-09-03T15:53:05.066Z,24.12
2022-09-03T15:58:26.328Z,24.15
2022-09-03T16:04:16.877Z,24.12
2022-09-03T16:09:18.379Z,24.19
2022-09-03T16:14:46.481Z,24.18
2022-09-03T16:19:57.020Z,24.28
2022-09-03T16:25:20.228Z,24.47
2022-09-03T16:30:40.992Z,24.59
2022-09-03T16:35:59.281Z,24.56
2022-09-03T16:41:30.408Z,24.45
2022-09-03T16:47:01.530Z,24.22
2022-09-03T16:52:18.974Z,24.01
2022-09-03T16:57:46.790Z,23.87
2022-09-03T17:03:07.229Z,23.71
2022-09-03T17:08:29.058Z,23.59
2022-09-03T17:14:00.033Z,23.50
2022-09-03T17:19:32.707Z,23.35
2022-09-03T17:24:38.233Z,23.26
2022-09-03T17:30:10.559Z,23.22
2022-09-03T17:35:19.387Z,23.22
2022-09-03T17:40:46.512Z,23.24
2022-09-03T17:46:22.520Z,23.26
2022-09-03T17:51:39.312Z,23.18
2022-09-03T17:57:05.010Z,23.04
2022-09-03T18:02:24.664Z,22.85
2022-09-03T18:07:43.469Z,22.62
2022-09-03T18:12:59.850Z,22.39
2022-09-03T18:18:18.926Z,22.15
2022-09-03T18:23:48.442Z,21.95
2022-09-03T18:29:21.966Z,21.69
2022-09-03T18:34:50.458Z,21.50
2022-09-03T18:40:10.314Z,21.35
2022-09-03T18:51:52.576Z,20.71
2022-09-03T18:57:13.017Z,20.54
2022-09-03T19:02:48.158Z,20.47
2022-09-03T19:08:24.933Z,20.42
2022-09-03T19:13:50.984Z,20.36
2022-09-03T19:19:31.789Z,20.27
2022-09-03T19:24:52.222Z,20.09
2022-09-03T19:30:21.711Z,19.87
2022-09-03T19:35:49.088Z,19.77
2022-09-03T19:41:41.873Z,19.76
2022-09-03T19:47:08.677Z,19.72
2022-09-03T19:52:51.066Z,19.64
2022-09-03T19:58:41.557Z,19.58
2022-09-03T20:03:59.346Z,19.52
2022-09-03T20:09:27.403Z,19.44
2022-09-03T20:14:33.210Z,19.33
2022-09-03T20:19:45.470Z,19.26
2022-09-03T20:24:58.624Z,19.15
2022-09-03T20:30:15.751Z,19.08
2022-09-03T20:35:40.075Z,18.96
2022-09-03T20:40:46.805Z,18.89
2022-09-03T20:46:15.222Z,18.77
2022-09-03T20:51:21.812Z,18.57
2022-09-03T20:57:02.103Z,18.42
2022-09-03T21:02:32.006Z,18.33
2022-09-03T21:08:12.465Z,18.35
2022-09-03T21:13:51.738Z,18.36
2022-09-03T21:19:11.923Z,18.37
2022-09-03T21:24:42.937Z,18.38
2022-09-03T21:29:59.618Z,18.36
2022-09-03T21:35:28.335Z,18.29
2022-09-03T21:40:33.434Z,18.28
2022-09-03T21:45:50.277Z,18.27
2022-09-03T21:51:00.190Z,18.18
2022-09-03T21:56:30.720Z,18.04
2022-09-03T22:01:59.183Z,18.01
2022-09-03T22:07:05.851Z,17.99
2022-09-03T22:12:54.090Z,17.95
2022-09-03T22:18:08.368Z,17.93
2022-09-03T22:23:21.075Z,17.88
2022-09-03T22:28:36.884Z,17.78
2022-09-03T22:33:56.398Z,17.73
2022-09-03T22:39:07.720Z,17.68
2022-09-03T22:44:14.862Z,17.60
2022-09-03T22:49:31.678Z,17.49
2022-09-03T22:54:43.897Z,17.37
2022-09-03T22:59:59.618Z,17.27
2022-09-03T23:05:32.794Z,17.17
2022-09-03T23:10:36.438Z,17.16
2022-09-03T23:15:41.924Z,17.14
2022-09-03T23:20:59.379Z,17.06
2022-09-03T23:26:22.278Z,16.98
2022-09-03T23:31:26.816Z,16.92
2022-09-03T23:36:54.981Z,16.87
2022-09-03T23:42:29.934Z,16.76
2022-09-03T23:48:22.083Z,16.70
2022-09-03T23:53:52.897Z,16.66
2022-09-03T23:59:00.003Z,16.58
